Skip Navigation Links
NOAA logo - Click to go to the NOAA homepage
NOAA's National Weather Service
Alaska Aviation Weather Unit
  NWS logo - Click to go to the NWS homepage
Left Navbar Graphic     21 AKDT = 05 GMT

   
NOAA is celebrating 200 years of science, service, and stewardship. Visit the NOAA 200th celebration Web site to learn more.
USA.gov is the U.S. Government's official Web portal to all Federal, state and local government Web resources and services.
Facebook
NWS on Facebook

AAWU Home :: Display TAF Add Bookmark
METAR PAHL 262356Z AUTO 07009KT 10SM BKN050 06/M03 A2963 RMK AO2 SLP042
     T00561028 10056 20022 58001=

METAR PAHL 270056Z AUTO 06008KT 10SM BKN040 06/M03 A2962 RMK AO2 SLP041
     T00611028=

METAR PAHL 270156Z AUTO 04010KT 10SM FEW040 07/M03 A2962 RMK AO2
 SLP039 T00671033=

METAR PAHL 270256Z AUTO 05009KT 10SM CLR 07/M03 A2962 RMK AO2 SLP041
     T00671033 55002=

METAR PAHL 270356Z AUTO 05007KT 10SM CLR 07/M03 A2962 RMK AO2 SLP042
     T00671033=

METAR PAHL 270456Z AUTO 05007KT 10SM CLR 06/M04 A2963 RMK AO2 SLP046
     T00561039=


NOAA's National Weather Service
Alaska Aviation Weather Unit
6930 Sand Lake Road
Anchorage, AK 99502-1845
Disclaimer
Credits
Glossary
Privacy Policy
About Us
Career Opportunities
Contact AAWU Internet Services Site last modified: April, 17th 2012